Myakka City, Florida
Current Conditions -  °F | °C
As of 8:53 PM on Sunday 25 Jan 2015 (Local Time) from KSRQ Reporting Station
Clear Clear  
Wind Chill: 56°   Ceiling: Unl
Heat Index: 56°   Visibility: 10mi
Dew Point: 53°   Wind: 8mph
Humidity: 90%   Direction: 150°SSE
Pressure: 29.99"   Gusts: NA
Location:  27.35°N, 82.16°W
Report Text: KSRQ 260153Z 15007KT 10SM CLR 13/12 A2999 RMK AO2 SLP155 T01330117
Loading
Personal Weather Stations






























Interactive Weather Map New forecast layout! Learn more

10-Day Weather Forecast

Advertisements
Track Severe Weather on mobile